Time;durP1;ratioP1;P1;durP2;ratioP2;P2;SDS_P1;SDS_P2;PMS_P1;PMS_P2;Temp;Humidity;BMP_temperature;BMP_pressure;BME280_temperature;BME280_humidity;BME280_pressure;Samples;Min_cycle;Max_cycle;Signal;HPM_P1;HPM_P2
2022/01/08 00:00:58;;;;;;;29.17;16.83;;;;;;;2.98;82.20;100521.84;5027527;28;20126;-68
2022/01/08 00:03:25;;;;;;;31.15;17.30;;;;;;;2.47;83.13;100528.22;5027104;28;20052;-68
2022/01/08 00:05:53;;;;;;;32.67;17.25;;;;;;;2.39;83.49;100525.81;5024906;28;20096;-68
2022/01/08 00:08:20;;;;;;;31.90;17.55;;;;;;;2.65;82.54;100528.66;5023520;28;20049;-69
2022/01/08 00:10:46;;;;;;;27.75;18.00;;;;;;;2.75;81.77;100521.53;5028255;28;20135;-68
2022/01/08 00:13:12;;;;;;;35.45;18.58;;;;;;;2.90;80.68;100527.19;5028083;28;20042;-68
2022/01/08 00:15:40;;;;;;;29.25;18.02;;;;;;;2.91;80.49;100517.69;5025045;28;20507;-68
2022/01/08 00:18:06;;;;;;;27.65;17.15;;;;;;;2.66;80.59;100522.59;5026396;28;20560;-68
2022/01/08 00:20:35;;;;;;;30.63;16.65;;;;;;;2.18;83.21;100523.69;5026483;28;20045;-68
2022/01/08 00:23:01;;;;;;;28.35;17.67;;;;;;;2.20;83.08;100525.34;5025349;28;20106;-68
2022/01/08 00:25:28;;;;;;;27.15;16.63;;;;;;;2.39;82.76;100524.06;5026727;28;20049;-67
2022/01/08 00:27:54;;;;;;;33.05;18.33;;;;;;;1.80;85.39;100517.53;5026918;28;20480;-67
2022/01/08 00:30:21;;;;;;;30.85;16.20;;;;;;;1.78;85.98;100514.13;5026114;28;20744;-67
2022/01/08 00:32:49;;;;;;;31.20;17.27;;;;;;;1.79;85.84;100517.56;5026035;28;20073;-67
2022/01/08 00:35:16;;;;;;;30.08;16.90;;;;;;;1.84;85.98;100519.19;5026186;28;20131;-68
2022/01/08 00:37:43;;;;;;;32.50;17.95;;;;;;;1.90;85.73;100520.78;5029026;28;20072;-67
2022/01/08 00:40:11;;;;;;;26.88;16.88;;;;;;;1.90;86.16;100521.66;5028127;28;20065;-68
2022/01/08 00:42:38;;;;;;;31.20;18.25;;;;;;;1.96;85.90;100520.66;5029704;28;20132;-67
2022/01/08 00:45:06;;;;;;;33.85;18.45;;;;;;;2.11;85.55;100517.75;5030153;28;20073;-67
2022/01/08 00:47:33;;;;;;;26.13;16.63;;;;;;;2.14;85.38;100530.66;5029787;28;20050;-68
2022/01/08 00:50:01;;;;;;;23.10;16.02;;;;;;;2.33;84.65;100533.69;5032118;28;20053;-67
2022/01/08 00:52:27;;;;;;;29.60;17.80;;;;;;;2.29;84.81;100534.66;5035888;28;20109;-67
2022/01/08 00:54:53;;;;;;;26.67;16.20;;;;;;;1.95;85.75;100525.00;5037259;28;20114;-67
2022/01/08 00:57:20;;;;;;;26.63;16.63;;;;;;;1.84;86.28;100528.69;5041409;28;20049;-67
2022/01/08 00:59:46;;;;;;;24.02;15.27;;;;;;;1.81;86.27;100521.81;5044620;28;21385;-67
2022/01/08 01:02:12;;;;;;;26.70;16.52;;;;;;;2.01;85.27;100523.16;5034171;28;20049;-68
2022/01/08 01:04:39;;;;;;;25.83;16.42;;;;;;;1.88;85.75;100526.00;5035015;28;20053;-67
2022/01/08 01:07:06;;;;;;;28.42;17.00;;;;;;;1.96;85.26;100526.69;5034760;28;20103;-67
2022/01/08 01:09:33;;;;;;;28.00;16.13;;;;;;;1.84;85.81;100531.25;5031417;28;20045;-67
2022/01/08 01:11:59;;;;;;;27.25;15.73;;;;;;;1.81;85.56;100528.75;5029008;28;20041;-68
2022/01/08 01:14:26;;;;;;;29.27;16.60;;;;;;;1.75;85.49;100524.53;5029380;28;20095;-68
2022/01/08 01:16:53;;;;;;;25.80;15.73;;;;;;;1.74;85.32;100522.81;5029533;28;20045;-67
2022/01/08 01:19:21;;;;;;;24.63;16.45;;;;;;;1.68;85.38;100519.50;5028828;28;20118;-68
2022/01/08 01:21:47;;;;;;;22.23;15.73;;;;;;;2.01;83.85;100516.25;5026992;28;20509;-68
2022/01/08 01:24:19;;;;;;;31.35;17.98;;;;;;;2.05;84.04;100522.22;5041513;28;20452;-67
2022/01/08 01:27:06;;;;;;;27.75;17.00;;;;;;;1.91;84.06;100527.66;5044029;28;20128;-68
2022/01/08 01:29:39;;;;;;;27.95;15.98;;;;;;;1.73;85.18;100522.88;5018998;28;20049;-67
2022/01/08 01:43:23;;;;;;;27.02;14.98;;;;;;;2.40;81.75;100502.47;5030155;28;20148;-67
2022/01/08 01:48:34;;;;;;;19.70;12.98;;;;;;;2.74;78.58;100497.38;5029374;28;20196;-67
2022/01/08 01:51:00;;;;;;;18.70;12.00;;;;;;;2.80;77.23;100507.59;5029785;28;20041;-67
2022/01/08 01:53:27;;;;;;;19.80;12.68;;;;;;;2.61;78.06;100505.47;5030160;28;20128;-67
2022/01/08 01:55:55;;;;;;;31.85;15.85;;;;;;;2.35;79.32;100509.50;5029561;28;20049;-67
2022/01/08 01:58:21;;;;;;;26.52;13.65;;;;;;;2.32;79.43;100506.97;5029024;28;20075;-68
2022/01/08 02:00:50;;;;;;;20.83;13.02;;;;;;;2.46;78.68;100514.44;5021654;28;20095;-68
2022/01/08 02:03:16;;;;;;;23.42;13.63;;;;;;;2.49;78.26;100504.00;5030101;28;20050;-68
2022/01/08 02:05:45;;;;;;;19.67;12.90;;;;;;;2.47;78.00;100504.94;5027799;28;20058;-68
2022/01/08 02:08:13;;;;;;;20.23;12.77;;;;;;;2.31;77.32;100507.00;5026971;28;20041;-68
2022/01/08 02:10:39;;;;;;;22.45;13.27;;;;;;;1.92;79.54;100496.59;5029810;28;20072;-67
2022/01/08 02:13:07;;;;;;;22.50;14.20;;;;;;;2.13;78.89;100502.22;5029619;28;20045;-68
2022/01/08 02:15:34;;;;;;;24.48;13.45;;;;;;;2.07;78.67;100502.38;5028792;28;20111;-68
2022/01/08 02:18:00;;;;;;;22.20;12.88;;;;;;;1.97;79.14;100501.69;5037350;28;20449;-68
2022/01/08 02:20:28;;;;;;;24.50;14.43;;;;;;;1.82;78.96;100507.16;5029759;28;20049;-67
2022/01/08 02:22:54;;;;;;;25.08;14.18;;;;;;;1.67;80.44;100502.28;5030219;28;20447;-67
2022/01/08 02:25:22;;;;;;;24.85;15.60;;;;;;;1.37;82.51;100509.72;5029233;28;20041;-67
2022/01/08 02:27:49;;;;;;;29.95;16.67;;;;;;;1.42;83.54;100509.66;5028255;28;20494;-68
2022/01/08 02:30:15;;;;;;;35.60;18.65;;;;;;;1.54;83.63;100506.84;5023283;28;20050;-68
2022/01/08 02:32:42;;;;;;;35.40;18.48;;;;;;;1.85;83.37;100507.94;5028051;28;20104;-68
2022/01/08 02:35:09;;;;;;;31.02;17.77;;;;;;;1.76;83.92;100500.38;5027106;28;20041;-68
2022/01/08 02:37:37;;;;;;;31.15;18.15;;;;;;;1.86;84.04;100488.13;5018498;28;20394;-68
2022/01/08 02:40:05;;;;;;;28.98;16.85;;;;;;;1.89;83.40;100490.63;5023718;28;20053;-68
2022/01/08 02:42:38;;;;;;;28.17;16.05;;;;;;;2.37;82.00;100491.34;5026822;28;20409;-68
2022/01/08 02:45:06;;;;;;;27.45;15.18;;;;;;;2.51;80.93;100494.50;5026833;28;20682;-67
2022/01/08 02:47:33;;;;;;;33.75;17.08;;;;;;;2.58;80.73;100490.88;5019925;28;20116;-68
2022/01/08 02:49:59;;;;;;;26.75;15.73;;;;;;;2.43;80.91;100496.38;5018033;28;20061;-68
2022/01/08 02:52:25;;;;;;;29.08;15.85;;;;;;;2.64;80.48;100490.72;5027441;28;20072;-68
2022/01/08 02:54:53;;;;;;;26.15;15.30;;;;;;;2.55;80.30;100495.25;5026917;28;20045;-68
2022/01/08 02:57:20;;;;;;;25.85;14.40;;;;;;;2.87;79.41;100500.53;5027906;28;20053;-68
2022/01/08 02:59:46;;;;;;;25.95;14.27;;;;;;;2.71;79.55;100500.03;5027544;28;20046;-68
2022/01/08 03:02:13;;;;;;;23.92;14.48;;;;;;;3.00;79.21;100501.06;5020387;28;20460;-68
2022/01/08 03:04:39;;;;;;;25.50;14.05;;;;;;;2.98;78.99;100498.53;5020491;28;20062;-68
2022/01/08 03:07:05;;;;;;;26.08;13.60;;;;;;;2.94;78.72;100507.25;5021985;28;20055;-68
2022/01/08 03:09:35;;;;;;;23.90;13.77;;;;;;;3.05;78.70;100497.50;5022731;28;20469;-68
2022/01/08 03:12:03;;;;;;;25.67;13.18;;;;;;;3.10;77.73;100497.38;5028518;28;20072;-68
2022/01/08 03:14:29;;;;;;;26.05;13.85;;;;;;;3.13;78.14;100505.94;5028953;28;20049;-68
2022/01/08 03:16:56;;;;;;;24.02;14.00;;;;;;;3.19;77.48;100494.53;5026051;28;20310;-68
2022/01/08 03:19:23;;;;;;;22.30;13.98;;;;;;;3.09;78.18;100498.25;5025160;28;20091;-68
2022/01/08 03:21:52;;;;;;;23.88;13.35;;;;;;;3.08;78.39;100496.56;5027568;28;20115;-68
2022/01/08 03:24:26;;;;;;;22.15;13.18;;;;;;;3.12;77.31;100503.38;5028790;28;20041;-68
2022/01/08 03:26:53;;;;;;;23.40;12.80;;;;;;;3.04;77.84;100497.50;5028050;28;20057;-67
2022/01/08 03:29:20;;;;;;;26.23;14.18;;;;;;;2.70;79.27;100500.06;5028852;28;20127;-68
2022/01/08 03:31:47;;;;;;;23.67;14.00;;;;;;;2.28;81.82;100507.94;5027930;28;20077;-68
2022/01/08 03:34:13;;;;;;;27.98;15.98;;;;;;;2.64;80.80;100506.25;5028890;28;20119;-68
2022/01/08 03:36:40;;;;;;;26.90;14.73;;;;;;;2.84;80.21;100513.56;5020522;28;20050;-68
2022/01/08 03:39:06;;;;;;;26.98;14.88;;;;;;;2.99;79.43;100501.97;5021414;28;20041;-68
2022/01/08 03:41:33;;;;;;;23.70;14.60;;;;;;;3.08;79.18;100500.00;5025893;28;20422;-68
2022/01/08 03:43:59;;;;;;;26.95;14.52;;;;;;;3.04;79.32;100500.97;5028735;28;20490;-68
2022/01/08 03:46:30;;;;;;;25.63;13.30;;;;;;;3.10;79.21;100502.56;5029002;28;20042;-68
2022/01/08 03:49:13;;;;;;;25.52;14.73;;;;;;;3.06;79.22;100504.38;5021343;28;20108;-68
2022/01/08 03:51:40;;;;;;;24.10;14.07;;;;;;;3.06;78.63;100506.97;5028543;28;20041;-68
2022/01/08 03:54:07;;;;;;;26.13;14.65;;;;;;;3.21;77.94;100493.63;5028268;28;20046;-68
2022/01/08 03:56:33;;;;;;;28.58;15.30;;;;;;;2.81;79.29;100504.09;5026896;28;20045;-68
2022/01/08 03:58:59;;;;;;;27.85;15.88;;;;;;;2.83;79.92;100499.75;5028535;28;20045;-67
2022/01/08 04:01:27;;;;;;;34.38;15.68;;;;;;;2.94;79.69;100499.50;5028534;28;20486;-68
2022/01/08 04:03:53;;;;;;;30.33;15.95;;;;;;;3.00;79.40;100508.84;5008392;28;20092;-68
2022/01/08 04:06:20;;;;;;;30.08;14.70;;;;;;;2.98;79.13;100505.44;5015569;28;20045;-68
2022/01/08 04:08:46;;;;;;;26.77;14.80;;;;;;;2.93;79.10;100506.41;5027456;28;20049;-68
2022/01/08 04:11:12;;;;;;;27.90;15.20;;;;;;;2.94;79.35;100505.53;5024137;28;20045;-68
2022/01/08 04:13:41;;;;;;;25.52;14.35;;;;;;;2.94;79.33;100505.53;5015337;28;20054;-68
2022/01/08 04:16:14;;;;;;;24.23;14.05;;;;;;;3.14;78.84;100507.59;5028775;28;20042;-68
2022/01/08 04:18:42;;;;;;;24.88;14.93;;;;;;;3.24;78.74;100510.84;5031648;28;20049;-68
2022/01/08 04:21:40;;;;;;;27.17;14.48;;;;;;;3.32;78.22;100506.31;5031907;28;20068;-68
2022/01/08 04:24:08;;;;;;;28.40;14.93;;;;;;;3.22;78.20;100505.69;5031538;28;20045;-68
2022/01/08 04:26:34;;;;;;;23.25;13.65;;;;;;;3.31;77.93;100504.59;5031684;28;20049;-68
2022/01/08 04:29:01;;;;;;;29.48;15.10;;;;;;;3.08;79.19;100512.09;5028214;28;20127;-68
2022/01/08 04:31:27;;;;;;;28.35;14.23;;;;;;;3.21;78.62;100513.50;5029475;28;20049;-68
2022/01/08 04:33:55;;;;;;;23.90;14.75;;;;;;;3.26;78.40;100501.28;5031850;28;20119;-68
2022/01/08 04:36:21;;;;;;;24.02;14.65;;;;;;;3.27;77.96;100509.00;5024577;28;20490;-68
2022/01/08 04:38:48;;;;;;;25.67;14.75;;;;;;;3.04;78.36;100510.47;5030833;28;20061;-68
2022/01/08 04:41:14;;;;;;;27.40;15.25;;;;;;;2.65;80.39;100507.09;5031279;28;20061;-68
2022/01/08 04:43:43;;;;;;;28.85;16.58;;;;;;;2.65;80.63;100507.97;5031710;28;20099;-68
2022/01/08 04:46:10;;;;;;;28.85;15.10;;;;;;;2.47;81.68;100502.34;5027404;28;20041;-68
2022/01/08 04:48:36;;;;;;;26.27;13.85;;;;;;;2.69;81.11;100504.41;5027475;28;20636;-68
2022/01/08 04:51:04;;;;;;;24.55;14.68;;;;;;;2.78;80.54;100504.19;5031468;28;20119;-68
2022/01/08 04:53:30;;;;;;;30.05;15.40;;;;;;;2.96;79.85;100507.25;5031424;28;20045;-68
2022/01/08 04:55:57;;;;;;;25.45;15.00;;;;;;;3.01;78.54;100495.88;5031622;28;20046;-68
2022/01/08 04:58:23;;;;;;;25.02;14.68;;;;;;;2.85;78.79;100505.75;5031110;28;20111;-67
2022/01/08 05:00:49;;;;;;;26.67;14.68;;;;;;;2.50;80.40;100512.63;5031229;28;20068;-67
2022/01/08 05:03:16;;;;;;;24.42;14.43;;;;;;;2.50;81.20;100504.88;5027064;28;20096;-68
2022/01/08 05:05:42;;;;;;;29.45;15.05;;;;;;;2.64;80.87;100506.25;5031273;28;20053;-68
2022/01/08 05:08:10;;;;;;;26.13;13.88;;;;;;;2.47;80.48;100508.38;5030575;28;20046;-68
2022/01/08 05:10:36;;;;;;;30.88;15.98;;;;;;;2.55;80.89;100503.84;5024427;28;20049;-68
2022/01/08 05:13:05;;;;;;;26.52;15.77;;;;;;;2.43;81.67;100499.84;5030973;28;20045;-68
2022/01/08 05:15:31;;;;;;;27.80;15.05;;;;;;;2.62;80.46;100496.81;5031056;28;20045;-68
2022/01/08 05:17:58;;;;;;;25.67;13.45;;;;;;;2.40;80.27;100493.88;5030983;28;20490;-68
2022/01/08 05:20:29;;;;;;;28.10;14.65;;;;;;;2.52;79.73;100496.16;5024350;28;20046;-68
2022/01/08 05:23:00;;;;;;;30.45;14.75;;;;;;;2.58;79.16;100487.44;5010532;28;20049;-68
2022/01/08 05:25:29;;;;;;;24.15;13.65;;;;;;;2.58;79.02;100493.47;5011246;28;20064;-68
2022/01/08 05:27:56;;;;;;;27.33;14.02;;;;;;;2.70;78.58;100490.56;5023982;28;20045;-68
2022/01/08 05:30:23;;;;;;;23.02;13.73;;;;;;;2.74;78.55;100493.94;5029468;28;20123;-68
2022/01/08 05:32:51;;;;;;;22.55;14.00;;;;;;;2.73;78.98;100493.09;5030159;28;20098;-68
2022/01/08 05:35:18;;;;;;;33.55;14.88;;;;;;;2.58;79.53;100490.88;5030693;28;20045;-68
2022/01/08 05:37:44;;;;;;;29.83;15.55;;;;;;;2.61;79.65;100492.53;5023111;28;20124;-68
2022/01/08 05:40:12;;;;;;;28.00;15.55;;;;;;;2.74;79.29;100492.19;5025667;28;20168;-68
2022/01/08 05:42:40;;;;;;;31.75;15.43;;;;;;;2.74;78.85;100492.19;5030153;28;20107;-68
2022/01/08 05:45:07;;;;;;;23.30;14.07;;;;;;;2.84;78.21;100498.03;5030347;28;20660;-68
2022/01/08 05:47:34;;;;;;;27.80;16.02;;;;;;;2.48;80.39;100507.47;5030080;28;20387;-68
2022/01/08 05:50:01;;;;;;;25.48;15.00;;;;;;;2.62;79.99;100508.03;5029357;28;20053;-67
2022/01/08 05:52:27;;;;;;;31.30;17.08;;;;;;;2.83;79.17;100506.66;5030246;28;20081;-68
2022/01/08 05:54:54;;;;;;;34.78;16.73;;;;;;;2.86;79.12;100509.19;5019859;28;20410;-68
2022/01/08 05:57:20;;;;;;;32.38;16.35;;;;;;;2.76;79.00;100500.78;5029100;28;20096;-68
2022/01/08 05:59:48;;;;;;;30.10;16.35;;;;;;;2.83;79.32;100506.66;5029334;28;20053;-68
2022/01/08 06:02:14;;;;;;;29.80;17.40;;;;;;;2.95;79.01;100508.97;5029685;28;20041;-68
2022/01/08 06:04:41;;;;;;;30.35;16.70;;;;;;;2.92;78.94;100501.25;5029725;28;20057;-68
2022/01/08 06:07:07;;;;;;;35.10;17.17;;;;;;;2.99;78.43;100501.97;5029324;28;20407;-68
2022/01/08 06:09:33;;;;;;;29.67;16.50;;;;;;;3.06;78.25;100513.88;5029050;28;20049;-68
2022/01/08 06:12:00;;;;;;;30.83;15.82;;;;;;;2.92;78.35;100520.22;5027936;28;20049;-68
2022/01/08 06:14:26;;;;;;;34.55;16.73;;;;;;;2.93;78.64;100518.50;5029634;28;20061;-68
2022/01/08 06:16:54;;;;;;;33.15;16.65;;;;;;;3.00;78.68;100522.63;5029380;28;20049;-68
2022/01/08 06:19:20;;;;;;;28.80;16.13;;;;;;;3.01;78.29;100516.59;5028816;28;20087;-68
2022/01/08 06:21:46;;;;;;;35.15;16.92;;;;;;;3.00;78.20;100524.38;5029349;28;20080;-68
2022/01/08 06:24:14;;;;;;;31.58;16.48;;;;;;;3.02;78.09;100532.97;5029598;28;20103;-68
2022/01/08 06:26:40;;;;;;;28.25;16.48;;;;;;;3.06;77.88;100534.59;5029021;28;20099;-68
2022/01/08 06:29:07;;;;;;;32.05;16.67;;;;;;;2.84;78.25;100532.53;5019280;28;20054;-68
2022/01/08 06:31:33;;;;;;;30.75;17.13;;;;;;;2.79;79.08;100543.88;5028396;28;20064;-68
2022/01/08 06:34:01;;;;;;;37.88;18.00;;;;;;;2.75;79.68;100550.88;5024510;28;20141;-68
2022/01/08 06:36:27;;;;;;;41.08;19.50;;;;;;;2.93;79.26;100550.44;5029162;28;20045;-68
2022/01/08 06:38:54;;;;;;;40.53;19.95;;;;;;;2.79;79.84;100543.88;5027632;28;20045;-68
2022/01/08 06:41:20;;;;;;;45.72;20.08;;;;;;;2.36;81.94;100552.59;5028687;28;20132;-68
2022/01/08 06:43:47;;;;;;;43.90;21.35;;;;;;;2.45;81.94;100543.78;5028177;28;20131;-68
2022/01/08 06:46:13;;;;;;;42.00;21.13;;;;;;;2.62;81.31;100552.03;5021573;28;20049;-68
2022/01/08 06:48:41;;;;;;;40.20;21.60;;;;;;;2.61;81.39;100552.91;5028797;28;20122;-68
2022/01/08 06:51:09;;;;;;;39.70;19.23;;;;;;;2.52;81.92;100560.88;5028849;28;20504;-68
2022/01/08 06:53:35;;;;;;;40.00;19.40;;;;;;;2.28;82.69;100564.84;5029028;28;20073;-68
2022/01/08 06:56:02;;;;;;;37.47;18.30;;;;;;;2.31;82.95;100561.34;5029207;28;20045;-68
2022/01/08 06:58:28;;;;;;;31.08;17.50;;;;;;;2.41;82.42;100561.09;5029108;28;20456;-68
2022/01/08 07:00:55;;;;;;;30.02;18.00;;;;;;;2.64;81.46;100573.56;5028032;28;20037;-68
2022/01/08 07:03:21;;;;;;;31.48;17.13;;;;;;;2.71;81.09;100572.53;5014895;28;20050;-68
2022/01/08 07:05:47;;;;;;;33.00;16.58;;;;;;;2.61;81.30;100573.63;5025344;28;20498;-68
2022/01/08 07:08:15;;;;;;;32.58;16.60;;;;;;;2.68;81.26;100582.97;5026736;28;20493;-68
2022/01/08 07:10:42;;;;;;;29.40;17.00;;;;;;;2.80;80.48;100584.44;5032332;28;20123;-68
2022/01/08 07:13:09;;;;;;;30.35;16.85;;;;;;;2.78;80.13;100581.84;5028936;28;20064;-68
2022/01/08 07:15:35;;;;;;;30.98;16.65;;;;;;;2.70;80.14;100573.41;5020909;28;20053;-68
2022/01/08 07:18:02;;;;;;;31.33;16.33;;;;;;;2.80;80.25;100587.00;5028052;28;20041;-68
2022/01/08 07:20:28;;;;;;;31.10;17.02;;;;;;;2.80;79.93;100587.88;5022474;28;20103;-68
2022/01/08 07:22:54;;;;;;;31.90;16.20;;;;;;;3.01;79.05;100589.09;5028820;28;20045;-68
2022/01/08 07:25:22;;;;;;;31.38;17.98;;;;;;;2.80;79.37;100594.78;5028977;28;20046;-68
2022/01/08 07:27:48;;;;;;;26.80;16.08;;;;;;;2.72;79.79;100594.09;5027577;28;20568;-68
2022/01/08 07:30:15;;;;;;;31.80;18.38;;;;;;;2.98;79.16;100591.78;5020581;28;21139;-68
2022/01/08 07:32:42;;;;;;;28.08;17.40;;;;;;;2.44;80.67;100597.25;5019555;28;20045;-68
2022/01/08 07:35:09;;;;;;;30.05;17.27;;;;;;;2.81;79.84;100601.63;5027282;28;20045;-68
2022/01/08 07:37:36;;;;;;;32.50;16.35;;;;;;;2.62;80.89;100603.81;5025212;28;20050;-68
2022/01/08 07:40:02;;;;;;;34.97;17.77;;;;;;;2.66;80.66;100602.00;5031930;28;20045;-68
2022/01/08 07:42:30;;;;;;;34.13;18.23;;;;;;;2.62;80.84;100598.63;5035429;28;20077;-68
2022/01/08 07:44:56;;;;;;;36.83;19.02;;;;;;;2.65;80.99;100595.97;5035412;28;20064;-68
2022/01/08 07:47:22;;;;;;;40.83;18.83;;;;;;;2.67;80.52;100601.94;5035932;28;20041;-68
2022/01/08 07:49:49;;;;;;;58.90;25.30;;;;;;;2.71;80.56;100603.59;5028409;28;20111;-68
2022/01/08 07:52:16;;;;;;;68.50;29.40;;;;;;;2.69;80.46;100595.03;5024667;28;20104;-68
2022/01/08 07:54:43;;;;;;;54.03;24.00;;;;;;;2.72;80.30;100594.09;5032415;28;20070;-68
2022/01/08 07:57:09;;;;;;;45.50;22.38;;;;;;;2.51;80.94;100600.59;5039104;28;20115;-68
2022/01/08 07:59:37;;;;;;;33.38;18.05;;;;;;;2.82;80.15;100596.44;5035850;28;20115;-68
2022/01/08 08:02:04;;;;;;;30.10;16.98;;;;;;;2.89;79.34;100598.00;5031550;28;20068;-68
2022/01/08 08:04:30;;;;;;;32.17;15.70;;;;;;;3.14;78.33;100598.28;5035073;28;20138;-68
2022/01/08 08:06:56;;;;;;;28.92;16.65;;;;;;;3.11;77.61;100600.94;5032571;28;20405;-68
2022/01/08 08:09:23;;;;;;;29.50;15.07;;;;;;;2.88;78.27;100601.47;5039982;28;20378;-68
2022/01/08 08:11:49;;;;;;;30.35;15.50;;;;;;;2.92;77.98;100607.44;5043813;28;20045;-68
2022/01/08 08:14:15;;;;;;;26.83;15.73;;;;;;;3.23;77.22;100602.41;5043554;28;20107;-68
2022/01/08 08:16:43;;;;;;;29.02;15.10;;;;;;;3.40;75.83;100598.50;5029127;28;20045;-68
2022/01/08 08:19:09;;;;;;;24.05;13.48;;;;;;;3.39;75.43;100595.97;5037456;28;20563;-68
2022/01/08 08:21:36;;;;;;;24.88;14.27;;;;;;;3.43;75.78;100601.06;5049999;28;20072;-68
2022/01/08 08:24:04;;;;;;;22.15;13.50;;;;;;;3.40;75.74;100597.66;5042833;28;20045;-68
2022/01/08 08:26:31;;;;;;;23.77;12.80;;;;;;;3.33;75.55;100596.09;5041453;28;20124;-68
2022/01/08 08:28:57;;;;;;;23.88;13.30;;;;;;;3.05;76.70;100595.06;5031665;28;20119;-68
2022/01/08 08:31:24;;;;;;;28.13;14.35;;;;;;;2.87;77.48;100602.38;5029364;28;20053;-68
2022/01/08 08:33:51;;;;;;;26.10;15.23;;;;;;;2.55;79.41;100593.63;5040500;28;20117;-68
2022/01/08 08:36:18;;;;;;;27.60;16.40;;;;;;;2.64;78.35;100604.63;5041303;28;20045;-68
2022/01/08 08:38:44;;;;;;;27.02;16.33;;;;;;;2.90;77.40;100602.31;5037892;28;20409;-67
2022/01/08 08:41:11;;;;;;;31.75;18.42;;;;;;;2.75;78.34;100605.22;5045483;28;20099;-68
2022/01/08 08:43:37;;;;;;;38.45;20.08;;;;;;;2.56;79.52;100603.91;5041319;28;20068;-68
2022/01/08 08:46:04;;;;;;;37.05;21.20;;;;;;;2.27;81.06;100606.25;5037350;28;20122;-68
2022/01/08 08:48:30;;;;;;;36.53;19.10;;;;;;;2.37;80.88;100600.00;5036083;28;20072;-67
2022/01/08 08:50:58;;;;;;;27.42;16.77;;;;;;;2.62;79.84;100601.22;5021783;28;20053;-67
2022/01/08 08:53:25;;;;;;;30.15;15.77;;;;;;;2.69;79.32;100605.38;5025867;28;20386;-67
2022/01/08 08:55:51;;;;;;;30.02;15.88;;;;;;;2.58;80.15;100604.75;5031205;28;20064;-67
2022/01/08 08:58:17;;;;;;;36.13;17.08;;;;;;;2.28;81.15;100610.56;5028704;28;20069;-68
2022/01/08 09:00:44;;;;;;;29.65;15.80;;;;;;;2.62;81.03;100608.97;5030055;28;20414;-68
2022/01/08 09:03:10;;;;;;;33.88;17.70;;;;;;;2.73;80.29;100600.97;5036296;28;20045;-68
2022/01/08 09:05:36;;;;;;;33.20;16.88;;;;;;;2.63;80.54;100597.72;5032648;28;20045;-68
2022/01/08 09:08:04;;;;;;;37.70;19.05;;;;;;;2.62;80.94;100598.63;5044019;28;20086;-68
2022/01/08 09:10:33;;;;;;;29.70;17.23;;;;;;;2.80;80.46;100600.81;5036756;28;20045;-68
2022/01/08 09:13:01;;;;;;;29.33;16.50;;;;;;;2.71;81.10;100592.38;5035459;28;20469;-67
2022/01/08 09:15:28;;;;;;;37.35;17.08;;;;;;;2.85;80.46;100593.78;5047920;28;20041;-68
2022/01/08 09:17:57;;;;;;;34.72;16.85;;;;;;;3.39;79.53;100585.59;5050654;28;20417;-68
2022/01/08 09:20:24;;;;;;;28.10;15.57;;;;;;;3.41;78.28;100592.44;5048551;28;20045;-68
2022/01/08 09:22:51;;;;;;;34.95;17.58;;;;;;;3.40;78.59;100589.88;5043782;28;20068;-68
2022/01/08 09:25:18;;;;;;;54.08;24.00;;;;;;;3.46;78.95;100596.66;5042496;28;20529;-68
2022/01/08 09:27:45;;;;;;;32.97;17.65;;;;;;;3.66;77.81;100605.63;5038662;28;20054;-68
2022/01/08 09:30:11;;;;;;;28.63;15.25;;;;;;;3.59;77.88;100598.91;5027832;28;20095;-67
2022/01/08 09:32:41;;;;;;;31.08;17.10;;;;;;;3.64;78.33;100599.66;5030552;28;20477;-67
2022/01/08 09:35:08;;;;;;;29.42;15.63;;;;;;;3.69;78.22;100590.03;5048262;28;20060;-67
2022/01/08 09:37:37;;;;;;;26.23;13.85;;;;;;;3.60;78.46;100598.03;5035332;28;20064;-67
2022/01/08 09:40:05;;;;;;;22.08;14.35;;;;;;;3.63;78.42;100592.75;5048591;28;20052;-66
2022/01/08 09:42:33;;;;;;;27.00;14.60;;;;;;;3.70;78.46;100581.31;5045143;28;20092;-66
2022/01/08 09:44:59;;;;;;;25.95;13.88;;;;;;;3.70;78.51;100575.28;5046680;28;20126;-66
2022/01/08 09:47:25;;;;;;;35.05;14.88;;;;;;;3.47;79.17;100565.53;5050144;28;20041;-66
2022/01/08 09:49:52;;;;;;;25.02;13.82;;;;;;;3.64;78.43;100565.09;5047799;28;20429;-66
2022/01/08 09:52:18;;;;;;;27.70;15.68;;;;;;;3.69;78.84;100565.81;5032613;28;20114;-66
2022/01/08 09:54:45;;;;;;;27.35;16.00;;;;;;;3.87;78.33;100570.53;5044887;28;20069;-66
2022/01/08 09:57:11;;;;;;;24.80;15.00;;;;;;;3.71;78.39;100566.63;5023869;28;20065;-66
2022/01/08 09:59:39;;;;;;;30.45;14.57;;;;;;;3.95;77.96;100572.91;5038881;28;20106;-66
2022/01/08 10:02:05;;;;;;;25.17;13.88;;;;;;;4.18;77.69;100573.09;5025884;28;20045;-66
2022/01/08 10:04:34;;;;;;;23.20;13.63;;;;;;;3.96;77.89;100579.78;5043828;28;20052;-66
2022/01/08 10:07:14;;;;;;;46.67;23.55;;;;;;;4.13;78.17;100573.25;5038522;28;20098;-66
2022/01/08 10:09:59;;;;;;;42.28;21.30;;;;;;;4.18;78.36;100567.91;5042597;28;20098;-66
2022/01/08 10:12:40;;;;;;;38.15;19.05;;;;;;;4.28;77.53;100561.59;5024399;28;20115;-67
2022/01/08 10:17:54;;;;;;;35.72;17.85;;;;;;;5.19;74.62;100577.81;5029491;28;20052;-66
2022/01/08 10:20:32;;;;;;;23.85;17.90;;;;;;;5.78;72.61;100562.81;5029520;28;20045;-63
2022/01/08 10:23:00;;;;;;;28.85;19.85;;;;;;;6.45;68.49;100565.59;5028798;28;20056;-67
2022/01/08 10:25:26;;;;;;;26.38;22.63;;;;;;;6.55;68.30;100561.75;5028414;28;20045;-63
2022/01/08 10:27:53;;;;;;;16.95;13.88;;;;;;;7.28;67.32;100564.03;5024494;28;20122;-68
2022/01/08 10:30:27;;;;;;;25.75;15.40;;;;;;;7.49;66.13;100552.75;5028619;28;20049;-68
2022/01/08 10:32:57;;;;;;;27.30;17.63;;;;;;;7.39;64.32;100554.03;5029419;28;20045;-68
2022/01/08 10:35:48;;;;;;;18.30;12.15;;;;;;;7.54;64.08;100549.94;5029523;28;20053;-68
2022/01/08 10:38:15;;;;;;;21.33;13.63;;;;;;;7.89;62.89;100551.88;5024117;28;20060;-68
2022/01/08 10:40:42;;;;;;;21.63;18.92;;;;;;;7.69;62.15;100554.50;5029454;28;20103;-69
2022/01/08 10:43:20;;;;;;;17.85;13.82;;;;;;;7.72;61.62;100557.81;5029497;28;20077;-69
2022/01/08 10:45:48;;;;;;;33.05;30.42;;;;;;;7.48;62.68;100560.63;5029243;28;20053;-68
2022/01/08 10:48:25;;;;;;;26.05;21.90;;;;;;;6.94;62.90;100558.50;5028887;28;20072;-68
2022/01/08 10:50:51;;;;;;;18.02;14.23;;;;;;;6.18;65.72;100571.81;5020621;28;20049;-68
2022/01/08 10:53:18;;;;;;;20.33;14.82;;;;;;;5.72;67.49;100556.97;5029126;28;20595;-68
2022/01/08 10:55:44;;;;;;;22.30;11.30;;;;;;;5.51;69.10;100555.06;5028495;28;20053;-68
2022/01/08 10:58:10;;;;;;;23.05;13.57;;;;;;;6.18;67.60;100557.06;5028534;28;20095;-68
2022/01/08 11:00:37;;;;;;;18.98;11.48;;;;;;;6.92;63.87;100553.34;5027574;28;20494;-68
2022/01/08 11:03:04;;;;;;;25.08;16.92;;;;;;;6.91;63.52;100559.47;5028736;28;20099;-68
2022/01/08 11:05:32;;;;;;;21.73;12.70;;;;;;;6.89;63.98;100550.88;5029080;28;20041;-69
2022/01/08 11:08:13;;;;;;;20.52;12.65;;;;;;;7.14;64.02;100545.50;5013453;28;20045;-69
2022/01/08 11:10:41;;;;;;;15.15;11.13;;;;;;;7.65;62.22;100538.13;5028957;28;20489;-69
2022/01/08 11:13:13;;;;;;;21.02;14.27;;;;;;;7.33;61.37;100541.25;5028768;28;20056;-69
2022/01/08 11:15:49;;;;;;;16.65;10.60;;;;;;;7.51;61.02;100539.63;5028763;28;20053;-69
2022/01/08 11:18:19;;;;;;;16.23;10.07;;;;;;;8.19;60.24;100540.09;5028438;28;20057;-69
2022/01/08 11:20:47;;;;;;;12.85;10.10;;;;;;;8.10;59.88;100540.47;5028506;28;20100;-69
2022/01/08 11:23:15;;;;;;;19.90;10.73;;;;;;;8.04;61.15;100539.91;5027780;28;20045;-69
2022/01/08 11:25:42;;;;;;;20.23;11.77;;;;;;;7.97;60.04;100543.72;5045598;28;20056;-69
2022/01/08 11:28:11;;;;;;;16.45;10.30;;;;;;;8.13;60.63;100549.97;5035451;28;20046;-69
2022/01/08 11:30:39;;;;;;;15.20;12.27;;;;;;;7.54;61.27;100553.38;5027443;28;20049;-69
2022/01/08 11:33:12;;;;;;;13.85;10.10;;;;;;;6.53;63.70;100553.16;5023573;28;20468;-69
2022/01/08 11:35:42;;;;;;;26.40;17.10;;;;;;;5.81;66.08;100543.63;5025205;28;20048;-69